createdAt,value
2022-09-02T00:01:22.453Z,14.60
2022-09-02T00:03:49.491Z,14.50
2022-09-02T00:06:17.153Z,14.50
2022-09-02T00:08:44.715Z,14.50
2022-09-02T00:11:16.373Z,14.40
2022-09-02T00:13:43.859Z,14.40
2022-09-02T00:16:11.536Z,14.30
2022-09-02T00:18:40.329Z,14.30
2022-09-02T00:21:14.515Z,14.30
2022-09-02T00:23:43.291Z,14.30
2022-09-02T00:26:10.482Z,14.20
2022-09-02T00:28:37.481Z,14.10
2022-09-02T00:31:05.125Z,14.20
2022-09-02T00:33:32.261Z,14.10
2022-09-02T00:36:01.249Z,14.10
2022-09-02T00:38:29.483Z,14.10
2022-09-02T00:40:56.491Z,14.10
2022-09-02T00:43:40.474Z,14.00
2022-09-02T00:46:07.748Z,14.00
2022-09-02T00:48:37.313Z,14.00
2022-09-02T00:51:04.358Z,14.00
2022-09-02T00:53:34.109Z,14.00
2022-09-02T00:56:02.426Z,14.00
2022-09-02T00:58:35.025Z,14.00
2022-09-02T01:01:01.956Z,13.90
2022-09-02T01:03:31.523Z,13.90
2022-09-02T01:05:59.558Z,13.90
2022-09-02T01:08:28.950Z,13.80
2022-09-02T01:10:57.005Z,13.80
2022-09-02T01:13:27.083Z,13.80
2022-09-02T01:16:02.813Z,13.80
2022-09-02T01:18:31.096Z,13.80
2022-09-02T01:21:00.474Z,13.80
2022-09-02T01:23:34.799Z,13.90
2022-09-02T01:26:02.559Z,13.90
2022-09-02T01:28:29.430Z,13.90
2022-09-02T01:30:56.700Z,13.90
2022-09-02T01:33:25.366Z,13.80
2022-09-02T01:35:53.578Z,13.80
2022-09-02T01:38:21.758Z,13.80
2022-09-02T01:40:49.329Z,13.70
2022-09-02T01:43:19.955Z,13.80
2022-09-02T01:45:50.720Z,13.80
2022-09-02T01:48:21.786Z,13.80
2022-09-02T01:50:54.269Z,13.80
2022-09-02T01:53:21.199Z,13.90
2022-09-02T01:55:48.367Z,13.90
2022-09-02T01:58:15.180Z,13.80
2022-09-02T02:00:42.299Z,13.80
2022-09-02T02:03:09.212Z,13.80
2022-09-02T02:05:37.211Z,13.80
2022-09-02T02:08:07.773Z,13.80
2022-09-02T02:10:35.370Z,13.80
2022-09-02T02:13:02.998Z,13.70
2022-09-02T02:17:58.706Z,13.80
2022-09-02T02:20:27.125Z,13.70
2022-09-02T02:22:54.148Z,13.70
2022-09-02T02:25:21.107Z,13.60
2022-09-02T02:27:51.452Z,13.50
2022-09-02T02:30:21.189Z,13.50
2022-09-02T02:32:48.443Z,13.50
2022-09-02T02:35:19.306Z,13.40
2022-09-02T02:37:50.234Z,13.50
2022-09-02T02:40:20.411Z,13.40
2022-09-02T02:42:49.781Z,13.50
2022-09-02T02:45:16.674Z,13.50
2022-09-02T02:47:47.128Z,13.40
2022-09-02T02:50:17.555Z,13.40
2022-09-02T02:52:46.597Z,13.40
2022-09-02T02:55:14.993Z,13.30
2022-09-02T02:57:43.254Z,13.30
2022-09-02T03:00:18.264Z,13.30
2022-09-02T03:02:47.879Z,13.30
2022-09-02T03:05:15.718Z,13.40
2022-09-02T03:07:43.067Z,13.30
2022-09-02T03:10:13.089Z,13.30
2022-09-02T03:12:41.892Z,13.30
2022-09-02T03:15:11.299Z,13.30
2022-09-02T03:17:39.878Z,13.20
2022-09-02T03:20:07.986Z,13.20
2022-09-02T03:22:39.136Z,13.30
2022-09-02T03:25:10.215Z,13.10
2022-09-02T03:27:40.121Z,13.00
2022-09-02T03:30:09.534Z,13.10
2022-09-02T03:32:37.384Z,13.00
2022-09-02T03:35:07.775Z,13.00
2022-09-02T03:37:37.134Z,13.00
2022-09-02T03:40:10.018Z,12.90
2022-09-02T03:42:38.510Z,12.80
2022-09-02T03:45:09.220Z,12.80
2022-09-02T03:47:36.873Z,12.90
2022-09-02T03:50:04.792Z,12.90
2022-09-02T03:52:31.637Z,12.90
2022-09-02T03:54:58.669Z,12.80
2022-09-02T03:57:27.258Z,12.90
2022-09-02T03:59:54.414Z,12.90
2022-09-02T04:02:21.520Z,12.90
2022-09-02T04:04:48.494Z,12.90
2022-09-02T04:07:15.827Z,12.90
2022-09-02T04:09:46.599Z,12.90
2022-09-02T04:12:13.907Z,12.80
2022-09-02T04:14:42.106Z,12.80
2022-09-02T04:17:10.273Z,12.80
2022-09-02T04:19:37.679Z,12.80
2022-09-02T04:22:05.231Z,12.70
2022-09-02T04:24:32.538Z,12.80
2022-09-02T04:27:03.994Z,12.70
2022-09-02T04:29:33.866Z,12.80
2022-09-02T04:32:01.014Z,12.80
2022-09-02T04:34:28.076Z,12.80
2022-09-02T04:36:56.487Z,12.90
2022-09-02T04:39:23.749Z,12.90
2022-09-02T04:41:53.880Z,12.80
2022-09-02T04:44:21.543Z,12.80
2022-09-02T04:46:48.667Z,12.90
2022-09-02T04:49:20.275Z,12.90
2022-09-02T04:51:50.681Z,13.10
2022-09-02T04:54:17.866Z,13.00
2022-09-02T04:56:48.107Z,13.10
2022-09-02T04:59:15.520Z,13.10
2022-09-02T05:01:51.124Z,13.20
2022-09-02T05:04:24.086Z,13.20
2022-09-02T05:06:51.562Z,13.20
2022-09-02T05:09:19.801Z,13.20
2022-09-02T05:11:52.278Z,13.20
2022-09-02T05:14:24.160Z,13.30
2022-09-02T05:16:55.038Z,13.30
2022-09-02T05:19:23.810Z,13.30
2022-09-02T05:21:57.544Z,13.30
2022-09-02T05:24:29.834Z,13.40
2022-09-02T05:27:00.031Z,13.40
2022-09-02T05:29:28.719Z,13.40
2022-09-02T05:31:57.583Z,13.50
2022-09-02T05:34:26.105Z,13.50
2022-09-02T05:36:57.067Z,13.50
2022-09-02T05:39:25.903Z,13.60
2022-09-02T05:41:53.806Z,13.60
2022-09-02T05:44:20.931Z,13.70
2022-09-02T05:46:49.499Z,13.70
2022-09-02T05:49:17.995Z,13.80
2022-09-02T05:51:53.136Z,13.80
2022-09-02T05:54:30.849Z,13.80
2022-09-02T05:57:04.717Z,13.90
2022-09-02T05:59:36.932Z,13.90
2022-09-02T06:02:04.332Z,14.10
2022-09-02T06:04:32.160Z,14.10
2022-09-02T06:06:59.970Z,14.10
2022-09-02T06:09:27.277Z,14.10
2022-09-02T06:11:55.110Z,14.10
2022-09-02T06:14:27.366Z,14.10
2022-09-02T06:16:57.573Z,14.20
2022-09-02T06:19:32.765Z,14.20
2022-09-02T06:22:03.881Z,14.30
2022-09-02T06:24:33.838Z,14.50
2022-09-02T06:27:07.403Z,14.50
2022-09-02T06:29:37.952Z,14.70
2022-09-02T06:32:07.009Z,14.70
2022-09-02T06:34:35.282Z,14.70
2022-09-02T06:37:03.421Z,14.70
2022-09-02T06:39:32.348Z,14.70
2022-09-02T06:42:00.042Z,14.80
2022-09-02T06:44:29.870Z,14.80
2022-09-02T06:46:59.923Z,14.90
2022-09-02T06:49:28.810Z,15.00
2022-09-02T06:51:59.801Z,15.10
2022-09-02T06:54:31.519Z,15.20
2022-09-02T06:57:07.754Z,15.30
2022-09-02T06:59:37.860Z,15.40
2022-09-02T07:02:05.363Z,15.40
2022-09-02T07:04:53.212Z,15.40
2022-09-02T07:07:23.127Z,15.50
2022-09-02T07:10:14.445Z,15.60
2022-09-02T07:12:45.335Z,15.60
2022-09-02T07:15:15.957Z,15.60
2022-09-02T07:17:44.225Z,15.60
2022-09-02T07:20:16.628Z,15.60
2022-09-02T07:23:02.966Z,15.80
2022-09-02T07:25:32.374Z,15.80
2022-09-02T07:27:59.757Z,15.90
2022-09-02T07:30:31.657Z,16.00
2022-09-02T07:33:05.646Z,15.80
2022-09-02T07:35:33.760Z,15.80
2022-09-02T07:38:01.475Z,15.60
2022-09-02T07:40:28.458Z,15.70
2022-09-02T07:45:24.255Z,16.00
2022-09-02T07:47:51.170Z,16.20
2022-09-02T07:50:21.709Z,16.40
2022-09-02T07:52:58.202Z,16.50
2022-09-02T07:55:30.991Z,16.50
2022-09-02T07:57:58.381Z,16.50
2022-09-02T08:00:27.707Z,16.70
2022-09-02T08:02:58.113Z,16.80
2022-09-02T08:05:32.392Z,16.80
2022-09-02T08:08:00.472Z,16.70
2022-09-02T08:10:29.619Z,16.80
2022-09-02T08:12:57.989Z,16.90
2022-09-02T08:15:28.006Z,16.90
2022-09-02T08:17:56.695Z,16.90
2022-09-02T08:20:24.508Z,17.00
2022-09-02T08:23:00.906Z,17.10
2022-09-02T08:25:39.373Z,17.00
2022-09-02T08:28:06.773Z,17.10
2022-09-02T08:30:34.094Z,17.30
2022-09-02T08:33:01.196Z,17.50
2022-09-02T08:35:28.188Z,17.50
2022-09-02T08:37:55.041Z,17.50
2022-09-02T08:40:24.942Z,17.50
2022-09-02T08:42:54.698Z,17.40
2022-09-02T08:45:38.851Z,17.00
2022-09-02T08:48:21.401Z,16.90
2022-09-02T08:50:52.447Z,17.20
2022-09-02T08:53:37.001Z,17.40
2022-09-02T08:56:07.379Z,17.60
2022-09-02T08:58:43.706Z,17.70
2022-09-02T09:01:15.292Z,17.80
2022-09-02T09:03:58.105Z,17.60
2022-09-02T09:06:29.663Z,17.70
2022-09-02T09:09:04.963Z,17.70
2022-09-02T09:11:50.006Z,17.70
2022-09-02T09:14:37.477Z,17.90
2022-09-02T09:17:28.430Z,18.10
2022-09-02T09:20:00.591Z,18.20
2022-09-02T09:22:37.295Z,18.30
2022-09-02T09:25:11.660Z,18.10
2022-09-02T09:27:41.133Z,18.20
2022-09-02T09:30:14.463Z,18.30
2022-09-02T09:32:52.438Z,18.50
2022-09-02T09:35:19.734Z,18.60
2022-09-02T09:37:51.351Z,18.60
2022-09-02T09:40:26.325Z,18.00
2022-09-02T09:43:05.926Z,18.00
2022-09-02T09:45:50.065Z,18.20
2022-09-02T09:48:19.026Z,18.40
2022-09-02T09:50:47.761Z,18.70
2022-09-02T09:53:25.778Z,18.70
2022-09-02T09:56:15.706Z,18.70
2022-09-02T09:58:44.211Z,18.60
2022-09-02T10:01:20.308Z,18.60
2022-09-02T10:03:55.483Z,18.60
2022-09-02T10:06:34.869Z,18.90
2022-09-02T10:09:06.886Z,19.00
2022-09-02T10:11:36.697Z,19.20
2022-09-02T10:14:10.207Z,19.30
2022-09-02T10:16:53.177Z,19.30
2022-09-02T10:19:38.000Z,19.20
2022-09-02T10:22:58.450Z,19.20
2022-09-02T10:25:37.013Z,19.30
2022-09-02T10:28:41.075Z,19.30
2022-09-02T10:31:36.468Z,18.80
2022-09-02T10:34:03.615Z,18.40
2022-09-02T10:36:54.608Z,18.50
2022-09-02T10:39:37.188Z,18.80
2022-09-02T10:42:31.285Z,19.00
2022-09-02T10:45:32.131Z,19.10
2022-09-02T10:48:44.898Z,19.40
2022-09-02T10:51:20.222Z,19.20
2022-09-02T10:53:59.874Z,19.10
2022-09-02T10:56:42.672Z,18.80
2022-09-02T10:59:17.734Z,18.50
2022-09-02T11:01:58.498Z,18.70
2022-09-02T11:04:34.108Z,18.90
2022-09-02T11:07:03.763Z,19.10
2022-09-02T11:09:46.822Z,19.30
2022-09-02T11:12:20.124Z,19.60
2022-09-02T11:15:17.607Z,19.80
2022-09-02T11:17:54.460Z,20.00
2022-09-02T11:20:48.805Z,20.00
2022-09-02T11:23:50.010Z,20.10
2022-09-02T11:26:24.503Z,20.10
2022-09-02T11:29:14.077Z,20.20
2022-09-02T11:31:47.974Z,20.20
2022-09-02T11:34:42.389Z,20.30
2022-09-02T11:37:17.957Z,20.50
2022-09-02T11:40:34.347Z,20.60
2022-09-02T11:43:39.400Z,20.60
2022-09-02T11:46:46.481Z,20.50
2022-09-02T11:49:26.701Z,20.40
2022-09-02T11:52:02.170Z,20.40
2022-09-02T11:54:38.238Z,20.40
2022-09-02T11:57:07.231Z,20.30
2022-09-02T11:59:52.420Z,20.40
2022-09-02T12:02:48.097Z,20.50
2022-09-02T12:05:30.493Z,20.50
2022-09-02T12:08:00.084Z,20.10
2022-09-02T12:10:45.572Z,20.10
2022-09-02T12:13:46.076Z,20.00
2022-09-02T12:16:19.421Z,20.10
2022-09-02T12:19:10.936Z,20.20
2022-09-02T12:22:15.885Z,20.40
2022-09-02T12:25:07.233Z,20.60
2022-09-02T12:27:39.487Z,20.80
2022-09-02T12:30:13.109Z,20.80
2022-09-02T12:32:52.338Z,20.80
2022-09-02T12:35:57.940Z,20.80
2022-09-02T12:38:31.067Z,20.70
2022-09-02T12:41:16.038Z,20.70
2022-09-02T12:43:47.194Z,20.80
2022-09-02T12:46:17.600Z,20.70
2022-09-02T12:48:57.334Z,20.60
2022-09-02T12:51:55.269Z,20.80
2022-09-02T12:54:31.378Z,20.90
2022-09-02T12:56:58.539Z,20.80
2022-09-02T12:59:31.307Z,20.90
2022-09-02T13:02:10.741Z,20.90
2022-09-02T13:04:49.386Z,20.80
2022-09-02T13:08:08.798Z,20.80
2022-09-02T13:11:24.712Z,20.90
2022-09-02T13:14:18.315Z,21.00
2022-09-02T13:17:36.358Z,20.80
2022-09-02T13:20:27.948Z,21.00
2022-09-02T13:23:13.885Z,21.00
2022-09-02T13:26:06.563Z,20.90
2022-09-02T13:28:54.810Z,21.00
2022-09-02T13:31:25.558Z,20.90
2022-09-02T13:34:08.248Z,20.80
2022-09-02T13:36:37.934Z,20.80
2022-09-02T13:39:31.099Z,20.80
2022-09-02T13:41:57.969Z,20.60
2022-09-02T13:44:31.924Z,20.70
2022-09-02T13:47:17.768Z,20.60
2022-09-02T13:49:47.598Z,20.60
2022-09-02T13:52:51.160Z,20.60
2022-09-02T13:55:14.017Z,20.50
2022-09-02T13:57:49.840Z,20.60
2022-09-02T14:00:35.254Z,20.80
2022-09-02T14:03:05.283Z,20.80
2022-09-02T14:05:36.031Z,20.80
2022-09-02T14:08:07.030Z,20.90
2022-09-02T14:10:37.287Z,20.80
2022-09-02T14:13:05.119Z,20.60
2022-09-02T14:15:34.098Z,20.30
2022-09-02T14:18:18.125Z,20.00
2022-09-02T14:21:01.173Z,20.10
2022-09-02T14:23:33.377Z,20.00
2022-09-02T14:26:02.798Z,20.00
2022-09-02T14:28:32.990Z,20.20
2022-09-02T14:31:05.724Z,20.30
2022-09-02T14:33:45.739Z,20.30
2022-09-02T14:36:15.378Z,20.50
2022-09-02T14:38:45.191Z,20.50
2022-09-02T14:41:24.665Z,20.60
2022-09-02T14:44:08.199Z,20.60
2022-09-02T14:46:47.026Z,20.80
2022-09-02T14:49:22.615Z,20.80
2022-09-02T14:51:52.373Z,21.00
2022-09-02T14:54:45.484Z,21.00
2022-09-02T14:57:22.083Z,21.10
2022-09-02T14:59:50.113Z,20.90
2022-09-02T15:02:32.310Z,20.90
2022-09-02T15:05:03.774Z,20.70
2022-09-02T15:07:30.933Z,20.60
2022-09-02T15:09:58.038Z,20.50
2022-09-02T15:12:29.797Z,20.40
2022-09-02T15:14:57.586Z,20.30
2022-09-02T15:17:25.757Z,20.20
2022-09-02T15:19:52.660Z,20.10
2022-09-02T15:22:22.986Z,20.00
2022-09-02T15:24:50.643Z,20.00
2022-09-02T15:27:21.439Z,20.00
2022-09-02T15:29:49.522Z,19.90
2022-09-02T15:32:16.863Z,19.80
2022-09-02T15:34:43.799Z,19.80
2022-09-02T15:37:13.100Z,19.80
2022-09-02T15:39:40.794Z,19.80
2022-09-02T15:42:07.849Z,19.80
2022-09-02T15:44:34.657Z,19.80
2022-09-02T15:47:01.899Z,19.90
2022-09-02T15:49:28.998Z,19.90
2022-09-02T15:51:55.992Z,19.80
2022-09-02T15:54:24.179Z,19.80
2022-09-02T15:56:55.880Z,19.70
2022-09-02T15:59:25.037Z,19.80
2022-09-02T16:01:58.870Z,19.80
2022-09-02T16:04:27.530Z,19.80
2022-09-02T16:06:54.745Z,19.70
2022-09-02T16:09:22.121Z,19.70
2022-09-02T16:11:53.870Z,19.70
2022-09-02T16:14:22.122Z,19.70
2022-09-02T16:16:50.879Z,19.70
2022-09-02T16:19:22.358Z,19.70
2022-09-02T16:21:52.569Z,19.70
2022-09-02T16:24:21.479Z,19.80
2022-09-02T16:26:51.173Z,20.00
2022-09-02T16:29:19.569Z,20.10
2022-09-02T16:32:02.217Z,20.30
2022-09-02T16:34:36.397Z,20.50
2022-09-02T16:37:03.276Z,20.50
2022-09-02T16:39:30.725Z,20.40
2022-09-02T16:41:58.278Z,20.30
2022-09-02T16:44:26.329Z,20.20
2022-09-02T16:46:54.288Z,20.20
2022-09-02T16:49:22.455Z,20.10
2022-09-02T16:51:54.012Z,20.10
2022-09-02T16:54:31.360Z,20.00
2022-09-02T16:57:01.030Z,20.00
2022-09-02T16:59:28.091Z,19.80
2022-09-02T17:01:55.375Z,19.70
2022-09-02T17:04:22.446Z,19.70
2022-09-02T17:06:49.554Z,19.60
2022-09-02T17:09:16.900Z,19.50
2022-09-02T17:11:45.517Z,19.40
2022-09-02T17:14:17.798Z,19.40
2022-09-02T17:16:47.221Z,19.40
2022-09-02T17:19:20.934Z,19.30
2022-09-02T17:21:53.044Z,19.30
2022-09-02T17:24:22.533Z,19.30
2022-09-02T17:26:51.289Z,19.30
2022-09-02T17:29:47.661Z,19.10
2022-09-02T17:32:07.550Z,19.10
2022-09-02T17:34:34.522Z,19.10
2022-09-02T17:37:01.379Z,19.00
2022-09-02T17:39:36.962Z,19.00
2022-09-02T17:42:06.647Z,19.00
2022-09-02T17:44:36.324Z,19.00
2022-09-02T17:47:06.387Z,18.90
2022-09-02T17:49:36.456Z,18.90
2022-09-02T17:52:08.009Z,18.90
2022-09-02T17:54:36.261Z,18.90
2022-09-02T17:57:08.779Z,19.00
2022-09-02T17:59:44.926Z,18.90
2022-09-02T18:02:37.503Z,18.80
2022-09-02T18:05:16.473Z,18.80
2022-09-02T18:08:02.788Z,18.80
2022-09-02T18:10:36.716Z,18.70
2022-09-02T18:13:09.992Z,18.70
2022-09-02T18:15:58.848Z,18.70
2022-09-02T18:18:28.237Z,18.70
2022-09-02T18:21:17.285Z,18.70
2022-09-02T18:24:05.384Z,18.60
2022-09-02T18:27:07.242Z,18.60
2022-09-02T18:30:04.036Z,18.50
2022-09-02T18:33:07.805Z,18.50
2022-09-02T18:36:02.016Z,18.50
2022-09-02T18:39:05.864Z,18.40
2022-09-02T18:41:46.779Z,18.30
2022-09-02T18:44:19.214Z,18.20
2022-09-02T18:46:52.788Z,18.20
2022-09-02T18:49:22.559Z,18.20
2022-09-02T18:51:55.560Z,18.20
2022-09-02T18:54:28.816Z,18.30
2022-09-02T18:57:01.325Z,18.20
2022-09-02T18:59:43.115Z,18.20
2022-09-02T19:02:31.150Z,18.10
2022-09-02T19:04:59.401Z,18.00
2022-09-02T19:07:47.726Z,18.10
2022-09-02T19:10:17.544Z,18.10
2022-09-02T19:12:45.541Z,18.00
2022-09-02T19:15:14.537Z,18.00
2022-09-02T19:17:44.436Z,18.00
2022-09-02T19:20:11.700Z,18.00
2022-09-02T19:22:43.107Z,18.00
2022-09-02T19:25:19.737Z,18.10
2022-09-02T19:27:48.429Z,18.00
2022-09-02T19:30:24.849Z,18.00
2022-09-02T19:32:54.451Z,17.90
2022-09-02T19:35:25.126Z,17.90
2022-09-02T19:37:54.530Z,17.80
2022-09-02T19:40:28.597Z,17.80
2022-09-02T19:42:55.744Z,17.80
2022-09-02T19:45:23.329Z,17.70
2022-09-02T19:48:06.668Z,17.60
2022-09-02T19:50:38.131Z,17.50
2022-09-02T19:53:05.972Z,17.40
2022-09-02T19:55:33.866Z,17.30
2022-09-02T19:58:01.159Z,17.20
2022-09-02T20:00:28.133Z,17.20
2022-09-02T20:02:55.640Z,17.20
2022-09-02T20:05:25.306Z,17.10
2022-09-02T20:07:53.867Z,17.10
2022-09-02T20:10:27.774Z,17.10
2022-09-02T20:12:55.528Z,17.10
2022-09-02T20:15:22.334Z,17.00
2022-09-02T20:17:49.794Z,16.90
2022-09-02T20:20:20.390Z,17.00
2022-09-02T20:22:48.764Z,16.90
2022-09-02T20:25:15.705Z,16.90
2022-09-02T20:28:24.968Z,16.90
2022-09-02T20:31:07.241Z,16.90
2022-09-02T20:33:45.668Z,16.90
2022-09-02T20:36:41.055Z,16.80
2022-09-02T20:39:19.834Z,16.80
2022-09-02T20:42:14.614Z,16.80
2022-09-02T20:44:54.644Z,16.80
2022-09-02T20:47:47.786Z,16.70
2022-09-02T20:50:29.281Z,16.70
2022-09-02T20:53:24.132Z,16.60
2022-09-02T20:56:01.812Z,16.70
2022-09-02T20:58:39.732Z,16.60
2022-09-02T21:01:17.562Z,16.60
2022-09-02T21:04:07.199Z,16.50
2022-09-02T21:06:39.044Z,16.40
2022-09-02T21:09:43.846Z,16.40
2022-09-02T21:12:32.403Z,16.40
2022-09-02T21:15:07.472Z,16.40
2022-09-02T21:18:05.437Z,16.30
2022-09-02T21:20:57.940Z,16.30
2022-09-02T21:23:31.897Z,16.30
2022-09-02T21:26:05.481Z,16.20
2022-09-02T21:28:44.015Z,16.20
2022-09-02T21:31:38.513Z,16.20
2022-09-02T21:34:10.727Z,16.10
2022-09-02T21:36:38.703Z,16.10
2022-09-02T21:39:15.491Z,16.10
2022-09-02T21:41:51.074Z,16.10
2022-09-02T21:44:48.838Z,16.00
2022-09-02T21:47:15.670Z,16.00
2022-09-02T21:50:05.113Z,16.00
2022-09-02T21:52:52.968Z,16.00
2022-09-02T21:55:38.074Z,15.90
2022-09-02T21:58:30.446Z,15.90
2022-09-02T22:01:26.916Z,15.80
2022-09-02T22:04:16.828Z,15.80
2022-09-02T22:06:48.175Z,15.70
2022-09-02T22:09:18.320Z,15.80
2022-09-02T22:11:57.286Z,15.70
2022-09-02T22:14:44.806Z,15.70
2022-09-02T22:17:38.957Z,15.60
2022-09-02T22:20:07.646Z,15.60
2022-09-02T22:22:45.835Z,15.60
2022-09-02T22:25:16.912Z,15.60
2022-09-02T22:27:55.438Z,15.60
2022-09-02T22:30:22.995Z,15.50
2022-09-02T22:32:55.640Z,15.50
2022-09-02T22:35:34.170Z,15.50
2022-09-02T22:38:16.626Z,15.50
2022-09-02T22:40:49.290Z,15.50
2022-09-02T22:43:22.754Z,15.40
2022-09-02T22:46:17.562Z,15.50
2022-09-02T22:49:27.836Z,15.40
2022-09-02T22:52:47.330Z,15.40
2022-09-02T22:55:15.990Z,15.40
2022-09-02T22:58:04.266Z,15.50
2022-09-02T23:00:39.547Z,15.40
2022-09-02T23:03:24.121Z,15.30
2022-09-02T23:06:03.774Z,15.20
2022-09-02T23:08:31.726Z,15.30
2022-09-02T23:11:07.245Z,15.20
2022-09-02T23:13:57.098Z,15.20
2022-09-02T23:16:45.301Z,15.20
2022-09-02T23:19:29.301Z,15.10
2022-09-02T23:22:19.118Z,15.10
2022-09-02T23:24:56.196Z,15.00
2022-09-02T23:27:37.239Z,15.00
2022-09-02T23:30:04.412Z,15.00
2022-09-02T23:33:19.547Z,15.00
2022-09-02T23:35:56.273Z,15.00
2022-09-02T23:39:27.839Z,14.90
2022-09-02T23:42:00.770Z,14.90
2022-09-02T23:44:29.617Z,14.80
2022-09-02T23:47:05.559Z,14.80
2022-09-02T23:49:43.239Z,14.70
2022-09-02T23:52:29.418Z,14.70
2022-09-02T23:55:20.441Z,14.60
2022-09-02T23:58:11.024Z,14.50
